Time;durP1;ratioP1;P1;durP2;ratioP2;P2;SDS_P1;SDS_P2;PMS_P1;PMS_P2;Temp;Humidity;BMP_temperature;BMP_pressure;BME280_temperature;BME280_humidity;BME280_pressure;Samples;Min_cycle;Max_cycle;Signal;HPM_P1;HPM_P2
2022/01/31 00:00:17;;;;;;;4.47;3.00;;;1.50;99.90;;;;;;4852032;29;20066;-93
2022/01/31 00:02:45;;;;;;;5.07;3.17;;;1.50;99.90;;;;;;4854139;29;20041;-94
2022/01/31 00:05:14;;;;;;;4.97;2.72;;;1.40;99.90;;;;;;4849464;29;20030;-96
2022/01/31 00:07:40;;;;;;;4.32;3.00;;;1.40;99.90;;;;;;4865796;29;20108;-94
2022/01/31 00:10:09;;;;;;;3.88;2.80;;;1.30;99.90;;;;;;4871826;29;20037;-91
2022/01/31 00:13:22;;;;;;;4.88;3.05;;;1.30;99.90;;;;;;4885427;29;20037;-92
2022/01/31 00:15:26;;;;;;;5.13;2.88;;;1.30;99.90;;;;;;4875596;29;20090;-94
2022/01/31 00:17:52;;;;;;;4.63;2.63;;;1.30;99.90;;;;;;4858571;29;20033;-93
2022/01/31 00:20:17;;;;;;;4.47;3.00;;;1.30;99.90;;;;;;4871859;29;20041;-96
2022/01/31 00:22:46;;;;;;;4.43;2.60;;;1.30;99.90;;;;;;4869035;29;20038;-95
2022/01/31 00:25:13;;;;;;;4.80;2.80;;;1.30;99.90;;;;;;4865664;29;20061;-94
2022/01/31 00:27:39;;;;;;;4.70;2.60;;;1.30;99.90;;;;;;4877406;29;20053;-95
2022/01/31 00:30:06;;;;;;;3.88;2.85;;;1.20;99.90;;;;;;4858361;29;20120;-91
2022/01/31 00:32:32;;;;;;;3.65;2.50;;;1.20;99.90;;;;;;4875056;29;20037;-95
2022/01/31 00:37:31;;;;;;;3.88;2.50;;;1.30;99.90;;;;;;5090502;23;20036;-86
2022/01/31 00:39:57;;;;;;;4.45;2.47;;;1.30;99.90;;;;;;5633988;23;20268;-89
2022/01/31 00:51:15;;;;;;;6.15;3.05;;;1.40;99.90;;;;;;5923490;23;20911;31
2022/01/31 00:56:29;;;;;;;4.38;2.80;;;1.40;99.90;;;;;;5108994;23;20087;-94
2022/01/31 01:01:31;;;;;;;4.65;2.85;;;1.50;99.90;;;;;;5165528;23;20062;-89
2022/01/31 01:03:56;;;;;;;5.53;3.00;;;1.50;99.90;;;;;;5319316;23;20048;-93
2022/01/31 01:06:22;;;;;;;4.43;2.60;;;1.50;99.90;;;;;;4929378;29;20056;-95
2022/01/31 01:08:48;;;;;;;5.47;3.03;;;1.50;99.90;;;;;;4922546;29;20056;-95
2022/01/31 01:11:13;;;;;;;4.47;2.90;;;1.60;99.90;;;;;;4931918;29;20072;-89
2022/01/31 01:13:39;;;;;;;4.32;2.90;;;1.60;99.90;;;;;;4940425;29;20043;-91
2022/01/31 01:16:05;;;;;;;5.40;2.90;;;1.60;99.90;;;;;;4918172;29;20035;-94
2022/01/31 01:23:41;;;;;;;4.97;3.00;;;1.60;99.90;;;;;;4942779;23;20040;-92
2022/01/31 01:26:08;;;;;;;5.50;3.33;;;1.60;99.90;;;;;;4916612;29;20067;-94
2022/01/31 01:28:34;;;;;;;4.63;2.88;;;1.60;99.90;;;;;;4905122;29;20123;-94
2022/01/31 01:31:00;;;;;;;6.72;2.80;;;1.50;99.90;;;;;;4919769;29;20060;-93
2022/01/31 01:33:26;;;;;;;4.72;3.17;;;1.50;99.90;;;;;;4903620;29;20051;-96
2022/01/31 01:35:54;;;;;;;4.95;3.10;;;1.50;99.90;;;;;;4924607;29;20463;-95
2022/01/31 01:38:27;;;;;;;5.00;3.00;;;1.40;99.90;;;;;;4902360;29;20083;-96
2022/01/31 01:40:55;;;;;;;4.97;2.83;;;1.50;99.90;;;;;;4901571;29;20033;-96
2022/01/31 01:43:21;;;;;;;4.47;2.78;;;1.40;99.90;;;;;;4906170;29;20028;-95
2022/01/31 01:45:51;;;;;;;4.10;2.95;;;1.50;99.90;;;;;;4932879;29;20028;-95
2022/01/31 01:48:17;;;;;;;4.93;2.97;;;1.40;99.90;;;;;;4920162;29;20036;-96
2022/01/31 01:50:43;;;;;;;4.75;2.90;;;1.50;99.90;;;;;;4908955;29;20033;-95
2022/01/31 01:53:09;;;;;;;4.07;2.60;;;1.50;99.90;;;;;;4910025;29;20123;-93
2022/01/31 01:55:35;;;;;;;4.30;2.80;;;1.50;99.90;;;;;;4915051;29;20039;-95
2022/01/31 01:58:03;;;;;;;3.78;2.50;;;1.50;99.90;;;;;;4913507;29;20028;-94
2022/01/31 02:00:43;;;;;;;3.03;2.33;;;1.50;99.90;;;;;;4934960;29;20129;-94
2022/01/31 02:03:09;;;;;;;4.57;2.33;;;1.60;99.90;;;;;;4933475;29;20023;-94
2022/01/31 02:05:35;;;;;;;3.30;2.28;;;1.60;99.90;;;;;;4916731;29;20439;-95
2022/01/31 02:08:01;;;;;;;2.95;2.25;;;1.60;99.90;;;;;;4926647;29;20091;-94
2022/01/31 02:10:28;;;;;;;3.53;1.88;;;1.60;99.90;;;;;;4908546;29;20224;-93
2022/01/31 02:12:54;;;;;;;2.92;1.90;;;1.60;99.90;;;;;;4943819;29;20009;-92
2022/01/31 02:15:24;;;;;;;3.28;2.00;;;1.60;99.90;;;;;;4933944;29;20016;-93
2022/01/31 02:17:50;;;;;;;2.27;1.90;;;1.60;99.90;;;;;;4931228;29;20024;-94
2022/01/31 02:20:17;;;;;;;2.55;1.70;;;1.60;99.90;;;;;;4952242;29;20471;-90
2022/01/31 02:22:43;;;;;;;2.10;1.77;;;1.60;99.90;;;;;;4957806;29;20055;-94
2022/01/31 02:25:10;;;;;;;2.63;1.77;;;1.60;99.90;;;;;;4940265;29;20059;-94
2022/01/31 02:27:37;;;;;;;2.22;1.88;;;1.60;99.90;;;;;;4956465;29;20024;-95
2022/01/31 02:30:06;;;;;;;2.10;1.70;;;1.60;99.90;;;;;;4954123;29;20034;-94
2022/01/31 02:32:33;;;;;;;2.10;1.65;;;1.60;99.90;;;;;;4938103;29;20027;-95
2022/01/31 02:35:00;;;;;;;2.95;1.73;;;1.50;99.90;;;;;;4987032;23;20119;-91
2022/01/31 02:37:25;;;;;;;2.35;1.38;;;1.50;99.90;;;;;;4927575;29;20021;-95
2022/01/31 02:39:51;;;;;;;2.53;1.80;;;1.50;99.90;;;;;;4923498;29;20079;-95
2022/01/31 02:42:17;;;;;;;4.18;1.90;;;1.50;99.90;;;;;;4923635;29;20126;-96
2022/01/31 02:47:17;;;;;;;3.05;1.63;;;1.50;99.90;;;;;;4936539;29;20086;-95
2022/01/31 02:49:53;;;;;;;1.52;1.40;;;1.50;99.90;;;;;;4913717;29;20032;-96
2022/01/31 02:54:52;;;;;;;2.13;1.52;;;1.60;99.90;;;;;;4899315;29;20037;-93
2022/01/31 02:57:18;;;;;;;1.63;1.23;;;1.60;99.90;;;;;;4898606;29;20066;-90
2022/01/31 02:59:44;;;;;;;1.90;1.50;;;1.70;99.90;;;;;;4887574;29;20112;-92
2022/01/31 03:04:45;;;;;;;1.60;1.30;;;1.70;99.90;;;;;;5384025;23;20064;-95
2022/01/31 03:07:11;;;;;;;1.90;1.35;;;1.70;99.90;;;;;;4884618;29;20501;-96
2022/01/31 03:09:36;;;;;;;1.55;1.40;;;1.70;99.90;;;;;;4896671;29;20033;-96
2022/01/31 03:12:03;;;;;;;1.55;1.30;;;1.70;99.90;;;;;;4904831;29;20018;-94
2022/01/31 03:14:28;;;;;;;1.75;1.42;;;1.80;99.90;;;;;;4905449;29;20019;-90
2022/01/31 03:16:54;;;;;;;2.30;1.40;;;1.80;99.90;;;;;;4917389;29;20028;-95
2022/01/31 03:19:20;;;;;;;1.92;1.27;;;1.80;99.90;;;;;;4907782;29;20025;-95
2022/01/31 03:21:47;;;;;;;2.00;1.40;;;1.80;99.90;;;;;;4923792;29;20028;-95
2022/01/31 03:24:13;;;;;;;1.83;1.25;;;1.70;99.90;;;;;;4943060;23;20149;-90
2022/01/31 03:26:40;;;;;;;2.55;1.58;;;1.70;99.90;;;;;;4935734;23;20158;-95
2022/01/31 03:29:06;;;;;;;2.58;1.50;;;1.70;99.90;;;;;;4899359;29;20049;-95
2022/01/31 03:31:32;;;;;;;2.05;1.42;;;1.70;99.90;;;;;;4957794;24;20454;-93
2022/01/31 03:33:59;;;;;;;2.72;1.58;;;1.70;99.90;;;;;;4930236;29;20035;-95
2022/01/31 03:36:25;;;;;;;1.90;1.50;;;1.60;99.90;;;;;;4934669;29;20083;-96
2022/01/31 03:38:51;;;;;;;3.90;1.70;;;1.60;99.90;;;;;;4952427;29;20028;-95
2022/01/31 03:41:21;;;;;;;2.78;1.80;;;1.60;99.90;;;;;;4938318;29;20036;-96
2022/01/31 03:43:47;;;;;;;3.60;1.55;;;1.50;99.90;;;;;;4937186;29;20031;-95
2022/01/31 03:46:14;;;;;;;2.72;1.48;;;1.50;99.90;;;;;;4957732;29;20043;-93
2022/01/31 03:48:44;;;;;;;2.13;1.42;;;1.50;99.90;;;;;;4954818;29;20020;-96
2022/01/31 03:51:09;;;;;;;2.20;1.55;;;1.40;99.90;;;;;;4937910;29;20032;-94
2022/01/31 03:53:35;;;;;;;1.40;1.30;;;1.40;99.90;;;;;;4925375;29;20031;-94
2022/01/31 03:56:01;;;;;;;2.92;1.70;;;1.40;99.90;;;;;;4926637;29;20036;-95
2022/01/31 03:58:27;;;;;;;1.67;1.40;;;1.30;99.90;;;;;;4928253;29;20458;-96
2022/01/31 04:00:52;;;;;;;3.20;1.98;;;1.30;99.90;;;;;;4916196;29;20380;-94
2022/01/31 04:03:18;;;;;;;3.13;1.98;;;1.30;99.90;;;;;;4917272;29;20103;-94
2022/01/31 04:05:44;;;;;;;3.05;1.90;;;1.30;99.90;;;;;;4983556;23;20530;-93
2022/01/31 04:08:12;;;;;;;2.90;1.80;;;1.30;99.90;;;;;;4934888;29;20032;-93
2022/01/31 04:10:38;;;;;;;5.10;2.30;;;1.30;99.90;;;;;;4979844;23;20044;-90
2022/01/31 04:13:07;;;;;;;4.85;2.15;;;1.20;99.90;;;;;;4990853;23;20064;-87
2022/01/31 04:15:34;;;;;;;5.68;2.38;;;1.20;99.90;;;;;;4925901;29;20064;-89
2022/01/31 04:18:00;;;;;;;5.30;2.72;;;1.20;99.90;;;;;;4933261;29;20036;-92
2022/01/31 04:20:26;;;;;;;4.85;2.45;;;1.10;99.90;;;;;;4927854;29;20093;-93
2022/01/31 04:23:07;;;;;;;4.97;2.38;;;1.10;99.90;;;;;;4938500;29;20048;-92
2022/01/31 04:28:18;;;;;;;;;;;1.00;99.90;;;;;;4923200;29;20036;-92
2022/01/31 04:30:58;;;;;;;2.47;1.80;;;1.00;99.90;;;;;;4927324;29;19915;-93
2022/01/31 04:33:26;;;;;;;3.35;1.73;;;1.00;99.90;;;;;;4926279;29;20306;-94
2022/01/31 04:35:53;;;;;;;2.60;1.90;;;1.00;99.90;;;;;;4923977;29;20020;-92
2022/01/31 04:38:19;;;;;;;7.28;3.17;;;1.00;99.90;;;;;;4919505;29;20032;-92
2022/01/31 04:40:45;;;;;;;4.25;1.90;;;0.90;99.90;;;;;;4927562;29;20032;-93
2022/01/31 04:43:11;;;;;;;5.80;2.38;;;0.90;99.90;;;;;;4938447;29;20032;-93
2022/01/31 04:45:37;;;;;;;5.55;2.70;;;0.90;99.90;;;;;;4939890;29;20387;-95
2022/01/31 04:48:03;;;;;;;7.93;3.47;;;0.90;99.90;;;;;;4921143;29;20029;-93
2022/01/31 04:50:29;;;;;;;10.20;4.45;;;0.90;99.90;;;;;;4918723;29;20042;-94
2022/01/31 04:52:57;;;;;;;8.15;3.50;;;0.90;99.90;;;;;;4919973;29;20016;-94
2022/01/31 04:55:23;;;;;;;8.55;3.40;;;1.00;99.90;;;;;;4917873;29;20075;-94
2022/01/31 04:57:58;;;;;;;8.90;3.97;;;0.90;99.90;;;;;;4947109;29;20443;-95
2022/01/31 05:00:25;;;;;;;10.27;4.25;;;0.90;99.90;;;;;;4935295;29;20036;-93
2022/01/31 05:02:50;;;;;;;10.63;4.57;;;1.00;99.90;;;;;;4924557;29;20042;-92
2022/01/31 05:05:16;;;;;;;6.95;3.33;;;1.00;99.90;;;;;;4923048;29;20059;-93
2022/01/31 05:07:42;;;;;;;8.35;3.90;;;1.00;99.90;;;;;;4944586;29;20039;-92
2022/01/31 05:10:08;;;;;;;6.72;2.85;;;1.00;99.90;;;;;;4919177;29;20034;-92
2022/01/31 05:12:34;;;;;;;6.57;2.85;;;1.10;99.90;;;;;;4946753;29;20111;-95
2022/01/31 05:15:00;;;;;;;5.10;2.92;;;1.00;99.90;;;;;;4943771;29;20039;-94
2022/01/31 05:17:26;;;;;;;4.57;2.38;;;1.10;99.90;;;;;;4944745;29;20021;-93
2022/01/31 05:19:51;;;;;;;2.38;1.70;;;1.10;99.90;;;;;;4921690;29;20036;-94
2022/01/31 05:22:17;;;;;;;4.18;1.65;;;1.10;99.90;;;;;;4942515;29;20043;-93
2022/01/31 05:24:43;;;;;;;4.13;1.85;;;1.10;99.90;;;;;;4930876;29;20047;-95
2022/01/31 05:27:08;;;;;;;3.83;2.20;;;1.00;99.90;;;;;;4931040;29;20024;-94
2022/01/31 05:29:34;;;;;;;4.65;2.63;;;1.10;99.90;;;;;;4954405;29;20115;-95
2022/01/31 05:32:00;;;;;;;5.03;2.35;;;1.10;99.90;;;;;;4924295;29;20036;-94
2022/01/31 05:34:26;;;;;;;4.03;1.90;;;1.00;99.90;;;;;;4922688;29;20024;-88
2022/01/31 05:36:55;;;;;;;5.10;2.20;;;1.10;99.90;;;;;;4936247;29;20032;-88
2022/01/31 05:39:25;;;;;;;3.20;1.67;;;1.00;99.90;;;;;;4936600;29;20023;-91
2022/01/31 05:41:54;;;;;;;1.50;1.40;;;1.10;99.90;;;;;;4996665;23;20050;-94
2022/01/31 05:44:22;;;;;;;3.05;1.85;;;1.10;99.90;;;;;;4922382;29;20274;-94
2022/01/31 05:46:48;;;;;;;4.00;1.88;;;1.10;99.90;;;;;;4907970;29;20032;-92
2022/01/31 05:49:14;;;;;;;4.45;1.73;;;1.10;99.90;;;;;;4942686;29;20079;-92
2022/01/31 05:51:52;;;;;;;3.85;1.70;;;1.10;99.90;;;;;;4947685;29;20028;-87
2022/01/31 05:54:18;;;;;;;2.67;1.63;;;1.10;99.90;;;;;;4922921;29;20024;-86
2022/01/31 05:56:43;;;;;;;3.60;1.60;;;1.10;99.90;;;;;;4922643;29;20470;-82
2022/01/31 05:59:10;;;;;;;2.75;1.50;;;1.10;99.90;;;;;;4920417;29;20392;-86
2022/01/31 06:01:38;;;;;;;3.00;1.60;;;1.10;99.90;;;;;;4920769;29;20040;-84
2022/01/31 06:04:08;;;;;;;4.45;2.10;;;1.20;99.90;;;;;;4921048;29;20059;-82
2022/01/31 06:06:34;;;;;;;4.15;2.08;;;1.20;99.90;;;;;;4938060;29;20072;-81
2022/01/31 06:08:59;;;;;;;3.75;2.10;;;1.20;99.90;;;;;;4921579;29;20074;-82
2022/01/31 06:11:26;;;;;;;3.20;1.90;;;1.20;99.90;;;;;;4938562;29;20042;-84
2022/01/31 06:13:54;;;;;;;2.83;2.08;;;1.30;99.90;;;;;;4916322;29;20104;-85
2022/01/31 06:16:20;;;;;;;4.80;1.90;;;1.40;99.90;;;;;;4921800;29;20512;-80
2022/01/31 06:18:46;;;;;;;2.97;1.70;;;1.40;99.90;;;;;;4918372;29;20102;-80
2022/01/31 06:21:13;;;;;;;1.75;1.30;;;1.40;99.90;;;;;;4923817;29;20086;-83
2022/01/31 06:23:41;;;;;;;3.95;2.45;;;1.40;99.90;;;;;;4924114;29;20434;-83
2022/01/31 06:26:07;;;;;;;44.40;23.10;;;1.40;99.90;;;;;;4922302;29;20083;-84
2022/01/31 06:28:33;;;;;;;20.20;9.20;;;1.40;99.90;;;;;;4921764;29;20459;-81
2022/01/31 06:30:59;;;;;;;6.88;3.72;;;1.40;99.90;;;;;;4921713;29;20086;-86
2022/01/31 06:33:25;;;;;;;4.45;2.40;;;1.40;99.90;;;;;;4907112;29;20747;-82
2022/01/31 06:35:50;;;;;;;3.05;1.77;;;1.40;99.90;;;;;;4915942;29;20040;-83
2022/01/31 06:38:16;;;;;;;3.22;1.92;;;1.40;99.90;;;;;;4921847;29;20084;-82
2022/01/31 06:40:42;;;;;;;3.17;1.73;;;1.40;99.90;;;;;;4920716;29;20530;-84
2022/01/31 06:43:08;;;;;;;4.18;2.10;;;1.40;99.90;;;;;;4892409;29;20493;-87
2022/01/31 06:45:34;;;;;;;4.28;2.20;;;1.40;99.90;;;;;;4924833;29;20032;-86
2022/01/31 06:48:07;;;;;;;1.98;1.35;;;1.40;99.90;;;;;;4925115;29;20043;-83
2022/01/31 06:50:33;;;;;;;3.55;1.52;;;1.40;99.90;;;;;;4911133;29;20032;-88
2022/01/31 06:53:01;;;;;;;2.03;1.45;;;1.40;99.90;;;;;;4911069;29;20028;-89
2022/01/31 06:55:29;;;;;;;1.92;1.30;;;1.40;99.90;;;;;;4918154;29;20514;-86
2022/01/31 06:57:58;;;;;;;2.10;1.50;;;1.40;99.90;;;;;;4899965;29;20471;-88
2022/01/31 07:00:23;;;;;;;3.33;1.60;;;1.40;99.90;;;;;;4918200;29;20143;-88
2022/01/31 07:02:50;;;;;;;1.90;1.30;;;1.40;99.90;;;;;;4901024;29;20059;-88
2022/01/31 07:05:17;;;;;;;2.03;1.63;;;1.50;99.90;;;;;;4902914;29;20032;-88
2022/01/31 07:07:44;;;;;;;2.58;1.35;;;1.50;99.90;;;;;;4915304;29;20024;-92
2022/01/31 07:10:10;;;;;;;1.75;1.20;;;1.50;99.90;;;;;;4921539;29;20012;-89
2022/01/31 07:12:40;;;;;;;3.58;1.80;;;1.50;99.90;;;;;;4943401;29;20023;-90
2022/01/31 07:15:08;;;;;;;3.42;1.75;;;1.60;99.90;;;;;;4932591;29;20067;-87
2022/01/31 07:17:35;;;;;;;2.95;1.73;;;1.60;99.90;;;;;;4921288;29;20130;-87
2022/01/31 07:20:06;;;;;;;5.10;1.90;;;1.70;99.90;;;;;;4938723;29;20110;-88
2022/01/31 07:22:37;;;;;;;3.63;1.95;;;1.80;99.90;;;;;;4938653;29;20087;-86
2022/01/31 07:25:07;;;;;;;;;;;1.80;99.90;;;;;;4928629;29;20391;-85
2022/01/31 07:27:34;;;;;;;24.15;12.82;;;1.90;99.90;;;;;;4937174;29;19933;-86
2022/01/31 07:30:00;;;;;;;9.48;5.00;;;2.00;99.90;;;;;;4907719;29;20043;-87
2022/01/31 07:32:25;;;;;;;4.45;2.50;;;2.00;99.90;;;;;;4903265;29;20036;-91
2022/01/31 07:34:55;;;;;;;4.50;2.50;;;2.10;99.90;;;;;;4905693;29;21791;-83
2022/01/31 07:37:25;;;;;;;7.00;2.83;;;2.10;99.90;;;;;;4907118;29;20024;-85
2022/01/31 07:39:51;;;;;;;6.70;2.75;;;2.20;99.90;;;;;;4920266;29;20028;-84
2022/01/31 07:42:18;;;;;;;4.78;3.00;;;2.20;99.90;;;;;;4918353;29;20087;-85
2022/01/31 07:44:44;;;;;;;7.80;3.78;;;2.20;99.90;;;;;;4936827;29;20474;-84
2022/01/31 07:47:10;;;;;;;10.68;7.03;;;2.20;99.90;;;;;;4936863;29;20475;-86
2022/01/31 07:49:36;;;;;;;13.40;8.23;;;2.20;99.90;;;;;;4934444;29;20102;-84
2022/01/31 07:52:02;;;;;;;12.95;6.47;;;2.30;99.90;;;;;;4934837;29;20035;-85
2022/01/31 07:54:28;;;;;;;6.38;3.75;;;2.30;99.90;;;;;;4917766;29;20023;-84
2022/01/31 07:56:56;;;;;;;3.88;2.40;;;2.40;99.90;;;;;;4918554;29;20024;-84
2022/01/31 07:59:22;;;;;;;3.38;1.90;;;2.40;99.90;;;;;;4918814;29;20082;-85
2022/01/31 08:01:48;;;;;;;3.20;2.00;;;2.60;99.90;;;;;;4935765;29;20040;-85
2022/01/31 08:04:14;;;;;;;4.00;2.38;;;2.60;99.90;;;;;;4937609;29;20518;-85
2022/01/31 08:06:39;;;;;;;4.97;2.90;;;2.80;99.90;;;;;;4921413;29;20028;-84
2022/01/31 08:09:05;;;;;;;8.48;3.33;;;3.00;98.40;;;;;;4939868;29;20386;-84
2022/01/31 08:11:33;;;;;;;6.75;2.60;;;3.10;96.10;;;;;;4940396;29;20034;-84
2022/01/31 08:14:05;;;;;;;6.18;3.30;;;3.20;95.30;;;;;;4938581;29;20079;-86
2022/01/31 08:16:32;;;;;;;6.15;3.17;;;3.30;93.80;;;;;;4921178;29;20513;-86
2022/01/31 08:19:01;;;;;;;6.78;3.20;;;3.40;92.50;;;;;;4920483;29;20031;-84
2022/01/31 08:21:26;;;;;;;5.30;2.90;;;3.40;91.20;;;;;;4920562;29;20610;-86
2022/01/31 08:23:53;;;;;;;4.55;2.90;;;3.40;90.00;;;;;;4921699;29;20060;-86
2022/01/31 08:26:19;;;;;;;4.05;2.60;;;3.40;89.30;;;;;;4923423;29;20031;-84
2022/01/31 08:31:18;;;;;;;6.05;2.40;;;3.30;90.30;;;;;;4937175;29;20032;-85
2022/01/31 08:33:49;;;;;;;3.72;2.60;;;3.20;90.10;;;;;;4937750;29;20038;-84
2022/01/31 08:36:16;;;;;;;4.05;2.53;;;3.10;91.00;;;;;;4931768;29;20044;-84
2022/01/31 08:38:44;;;;;;;4.50;2.80;;;3.10;90.80;;;;;;4927308;29;20383;-84
2022/01/31 08:41:12;;;;;;;3.75;2.47;;;3.10;90.90;;;;;;4920550;29;20042;-84
2022/01/31 08:43:38;;;;;;;3.78;2.58;;;3.00;91.30;;;;;;4919649;29;20052;-84
2022/01/31 08:46:06;;;;;;;6.30;3.40;;;2.90;91.20;;;;;;4936854;29;20027;-84
2022/01/31 08:48:32;;;;;;;7.20;3.15;;;2.80;91.80;;;;;;4919704;29;20039;-84
2022/01/31 08:50:58;;;;;;;7.72;3.42;;;2.80;92.50;;;;;;4919708;29;20035;-84
2022/01/31 08:53:25;;;;;;;6.30;3.90;;;2.70;92.60;;;;;;4936902;29;20023;-84
2022/01/31 08:55:54;;;;;;;6.28;3.55;;;2.70;93.30;;;;;;4919348;29;20032;-85
2022/01/31 08:58:21;;;;;;;4.95;2.95;;;2.60;94.40;;;;;;4936577;29;20031;-84
2022/01/31 09:00:58;;;;;;;4.47;2.70;;;2.50;95.70;;;;;;4920080;29;20040;-85
2022/01/31 09:03:42;;;;;;;3.92;2.30;;;2.50;96.70;;;;;;4937315;29;20036;-85
2022/01/31 09:06:11;;;;;;;3.58;1.95;;;2.60;98.10;;;;;;4924020;29;20043;-83
2022/01/31 09:08:45;;;;;;;3.60;2.33;;;2.60;97.60;;;;;;4937536;29;20035;-84
2022/01/31 09:11:13;;;;;;;4.20;1.95;;;2.60;97.20;;;;;;4931457;29;20127;-84
2022/01/31 09:13:39;;;;;;;3.42;1.80;;;2.60;97.10;;;;;;4923122;29;20530;-84
2022/01/31 09:16:06;;;;;;;3.88;1.77;;;2.50;97.10;;;;;;4921789;29;20054;-84
2022/01/31 09:18:31;;;;;;;4.00;2.10;;;2.40;98.00;;;;;;4921629;29;20064;-84
2022/01/31 09:20:58;;;;;;;3.70;2.20;;;2.30;98.80;;;;;;4923091;29;20036;-84
2022/01/31 09:23:28;;;;;;;4.82;2.30;;;2.20;99.90;;;;;;4925536;29;20359;-84
2022/01/31 09:25:55;;;;;;;3.40;2.05;;;2.10;99.90;;;;;;4942616;29;20035;-83
2022/01/31 09:28:21;;;;;;;7.15;3.72;;;2.20;99.90;;;;;;4925586;29;20036;-85
2022/01/31 09:30:47;;;;;;;4.07;2.67;;;2.20;99.90;;;;;;4942013;29;20031;-85
2022/01/31 09:33:17;;;;;;;6.50;3.10;;;2.30;99.70;;;;;;4925248;29;20028;-84
2022/01/31 09:35:46;;;;;;;10.13;4.32;;;2.40;98.40;;;;;;4940848;29;20028;-85
2022/01/31 09:38:14;;;;;;;7.05;3.38;;;2.50;98.40;;;;;;4941231;29;20038;-85
2022/01/31 09:40:41;;;;;;;12.40;7.25;;;2.60;96.10;;;;;;4923681;29;20097;-84
2022/01/31 09:48:38;;;;;;;6.97;3.50;;;2.80;92.00;;;;;;4941949;29;20042;-85
2022/01/31 09:51:11;;;;;;;4.50;2.67;;;2.80;92.30;;;;;;4942022;29;20028;-85
2022/01/31 09:53:40;;;;;;;3.10;1.92;;;2.90;92.50;;;;;;4942206;29;20083;-85
2022/01/31 09:56:14;;;;;;;2.40;2.00;;;3.00;91.20;;;;;;4941724;29;20027;-85
2022/01/31 09:58:42;;;;;;;2.92;2.10;;;3.10;90.80;;;;;;4924661;29;20486;-85
2022/01/31 10:01:12;;;;;;;4.32;2.95;;;3.20;90.10;;;;;;4941990;29;20509;-85
2022/01/31 10:03:49;;;;;;;4.35;2.50;;;3.20;89.70;;;;;;4924722;29;20046;-86
2022/01/31 10:06:42;;;;;;;4.15;2.70;;;3.20;87.50;;;;;;4924500;29;20090;-85
2022/01/31 10:09:13;;;;;;;3.95;2.38;;;3.10;87.20;;;;;;4941308;29;20040;-85
2022/01/31 10:11:51;;;;;;;4.88;2.97;;;3.10;87.40;;;;;;4926616;29;20103;-85
2022/01/31 10:17:10;;;;;;;4.40;2.55;;;3.10;85.00;;;;;;4942854;29;20449;-87
2022/01/31 10:19:42;;;;;;;5.70;3.20;;;3.10;84.30;;;;;;4942678;29;20028;-88
2022/01/31 10:22:10;;;;;;;5.70;3.55;;;3.10;82.20;;;;;;4927497;29;20040;-89
2022/01/31 10:24:41;;;;;;;5.00;3.47;;;3.00;82.50;;;;;;4926712;29;20035;-89
2022/01/31 10:27:17;;;;;;;5.82;3.20;;;2.90;82.90;;;;;;4924367;29;20028;-88
2022/01/31 10:29:45;;;;;;;9.30;3.63;;;2.90;83.10;;;;;;4924515;29;20472;-88
2022/01/31 10:32:24;;;;;;;6.15;3.40;;;2.80;84.90;;;;;;4924311;29;20039;-86
2022/01/31 10:35:00;;;;;;;4.32;2.60;;;2.80;84.90;;;;;;4931346;29;20403;-86
2022/01/31 10:37:29;;;;;;;4.53;2.58;;;2.80;84.50;;;;;;4927775;29;20028;-86
2022/01/31 10:51:31;;;;;;;4.80;2.78;;;2.50;87.20;;;;;;4941780;29;20059;-85
2022/01/31 10:54:38;;;;;;;4.85;2.40;;;2.50;88.90;;;;;;4941424;29;20178;-86
2022/01/31 10:56:42;;;;;;;3.85;2.10;;;2.50;90.30;;;;;;4931200;29;20054;-87
2022/01/31 10:59:19;;;;;;;3.75;1.95;;;2.50;91.60;;;;;;4922591;29;20035;-86
2022/01/31 11:01:53;;;;;;;3.55;2.00;;;2.80;91.90;;;;;;4924293;29;20032;-86
2022/01/31 11:04:20;;;;;;;4.35;2.17;;;3.20;90.20;;;;;;4941368;29;20086;-87
2022/01/31 11:06:48;;;;;;;2.80;1.88;;;3.50;89.80;;;;;;4924846;29;20359;-87
2022/01/31 11:09:17;;;;;;;3.15;2.30;;;3.70;86.80;;;;;;4926630;29;20028;-87
2022/01/31 11:11:49;;;;;;;4.20;2.40;;;3.70;85.70;;;;;;4939674;29;20031;-87
2022/01/31 11:14:16;;;;;;;4.88;2.55;;;3.50;85.30;;;;;;4939242;29;20034;-85
2022/01/31 11:16:45;;;;;;;4.20;2.40;;;3.30;86.30;;;;;;4921698;29;20050;-87
2022/01/31 11:19:13;;;;;;;3.10;2.03;;;3.10;87.90;;;;;;4921880;29;20027;-86
2022/01/31 11:21:44;;;;;;;4.28;2.40;;;2.90;89.10;;;;;;4921677;29;20031;-85
2022/01/31 11:24:25;;;;;;;5.10;3.03;;;2.70;89.90;;;;;;4938432;29;20032;-85
2022/01/31 11:26:56;;;;;;;5.63;3.65;;;2.60;91.40;;;;;;4921436;29;20036;-86
2022/01/31 11:29:22;;;;;;;5.63;2.80;;;2.50;92.00;;;;;;4921771;29;20039;-86
2022/01/31 11:31:48;;;;;;;7.40;3.92;;;2.50;91.90;;;;;;4939115;29;20031;-86
2022/01/31 11:34:14;;;;;;;4.72;2.83;;;2.50;91.50;;;;;;4921412;29;20028;-87
2022/01/31 11:36:42;;;;;;;6.13;3.13;;;2.50;91.70;;;;;;4938149;29;20502;-85
2022/01/31 11:39:14;;;;;;;9.90;3.85;;;2.40;91.60;;;;;;4920832;29;20123;-85
2022/01/31 11:41:47;;;;;;;6.25;3.00;;;2.30;91.60;;;;;;4921166;29;20391;-87
2022/01/31 11:44:31;;;;;;;4.25;2.45;;;2.20;91.90;;;;;;4939188;29;20074;-86
2022/01/31 11:47:01;;;;;;;5.65;2.95;;;2.10;92.30;;;;;;4926913;29;20422;-85
2022/01/31 11:50:14;;;;;;;5.03;2.83;;;2.10;93.30;;;;;;4921153;29;20027;-86
2022/01/31 11:52:46;;;;;;;5.20;2.70;;;2.10;93.60;;;;;;4919282;29;20075;-86
2022/01/31 11:55:15;;;;;;;5.90;2.72;;;2.20;93.50;;;;;;4921166;29;20061;-85
2022/01/31 11:57:45;;;;;;;6.28;3.22;;;2.20;93.40;;;;;;4943786;29;20028;-85
2022/01/31 12:00:13;;;;;;;7.10;3.40;;;2.20;92.60;;;;;;4929569;29;20059;-83
2022/01/31 12:02:45;;;;;;;9.32;4.82;;;2.20;92.10;;;;;;4945769;29;20039;-85
2022/01/31 12:05:15;;;;;;;7.00;4.43;;;2.10;92.20;;;;;;4927867;29;20046;-86
2022/01/31 12:07:43;;;;;;;9.73;4.60;;;2.10;92.30;;;;;;4922411;29;20036;-85
2022/01/31 12:10:31;;;;;;;9.88;5.35;;;2.00;92.50;;;;;;4938642;29;20471;-86
2022/01/31 12:13:01;;;;;;;13.55;6.65;;;1.90;92.10;;;;;;4939013;29;20090;-85
2022/01/31 12:24:10;;;;;;;14.30;6.43;;;2.00;90.60;;;;;;4932757;29;20421;-85
2022/01/31 12:26:53;;;;;;;12.75;5.78;;;2.00;89.80;;;;;;4937621;29;20369;-85
2022/01/31 12:29:22;;;;;;;13.07;5.95;;;2.10;87.50;;;;;;4937293;29;20032;-86
2022/01/31 12:31:55;;;;;;;12.63;6.00;;;2.10;88.20;;;;;;4937764;29;20549;-86
2022/01/31 12:34:21;;;;;;;14.07;6.20;;;2.20;86.80;;;;;;4937405;29;20035;-84
2022/01/31 12:36:54;;;;;;;10.32;5.20;;;2.20;87.00;;;;;;4937611;29;20086;-89
2022/01/31 12:39:50;;;;;;;9.27;4.47;;;2.30;85.30;;;;;;4937674;29;20031;-87
2022/01/31 12:42:50;;;;;;;5.38;3.20;;;2.30;84.30;;;;;;4928942;29;20061;-86
2022/01/31 12:45:37;;;;;;;7.33;3.97;;;2.40;83.00;;;;;;4920366;29;20358;-86
2022/01/31 12:48:08;;;;;;;8.60;4.63;;;2.40;82.70;;;;;;4937503;29;20028;-87
2022/01/31 12:50:38;;;;;;;7.40;4.20;;;2.50;82.80;;;;;;4920408;29;20105;-86
2022/01/31 12:53:35;;;;;;;4.82;2.65;;;2.50;82.60;;;;;;4920239;29;20031;-88
2022/01/31 12:56:14;;;;;;;4.25;2.58;;;2.60;81.90;;;;;;4922887;29;20458;-87
2022/01/31 12:58:46;;;;;;;4.13;2.22;;;2.60;79.20;;;;;;4923307;29;20027;-89
2022/01/31 13:01:13;;;;;;;5.60;2.40;;;2.70;79.70;;;;;;4938099;29;20039;-86
2022/01/31 13:03:48;;;;;;;4.32;2.65;;;2.70;78.40;;;;;;4937669;29;20031;-85
2022/01/31 13:06:39;;;;;;;12.13;7.47;;;2.80;75.90;;;;;;4915347;29;20023;-83
2022/01/31 13:09:12;;;;;;;22.17;12.40;;;2.70;75.80;;;;;;4919858;29;20027;-86
2022/01/31 13:11:40;;;;;;;14.88;6.50;;;2.70;75.90;;;;;;4930692;29;20458;-84
2022/01/31 13:14:11;;;;;;;7.93;4.28;;;2.70;75.30;;;;;;4918357;29;20061;-89
2022/01/31 13:16:51;;;;;;;8.65;4.00;;;2.60;74.80;;;;;;4900535;29;20024;-85
2022/01/31 13:19:20;;;;;;;5.53;3.40;;;2.60;74.60;;;;;;4900547;29;20063;-85
2022/01/31 13:21:48;;;;;;;4.25;2.58;;;2.50;74.70;;;;;;4901184;29;20363;-88
2022/01/31 13:24:14;;;;;;;4.22;2.40;;;2.50;75.30;;;;;;4900853;29;20030;-85
2022/01/31 13:26:54;;;;;;;4.38;2.25;;;2.40;74.20;;;;;;4900776;29;20115;-84
2022/01/31 13:29:33;;;;;;;3.87;2.37;;;2.40;73.30;;;;;;4917466;29;20033;-87
2022/01/31 13:32:11;;;;;;;3.33;2.00;;;2.40;72.90;;;;;;4900427;29;20376;-87
2022/01/31 13:34:41;;;;;;;3.80;2.20;;;2.40;73.80;;;;;;4918285;29;20032;-85
2022/01/31 13:37:32;;;;;;;4.05;2.50;;;2.40;73.10;;;;;;4924111;29;20050;-88
2022/01/31 13:40:31;;;;;;;8.63;4.68;;;2.40;73.30;;;;;;4919246;29;20032;-80
2022/01/31 13:43:20;;;;;;;8.77;4.90;;;2.30;73.30;;;;;;4926568;29;20052;-86
2022/01/31 13:48:54;;;;;;;9.05;5.00;;;2.30;73.10;;;;;;4920337;29;20032;-84
2022/01/31 13:51:36;;;;;;;14.68;7.18;;;2.20;73.30;;;;;;4919698;29;20078;-84
2022/01/31 13:54:04;;;;;;;5.63;3.30;;;2.20;72.90;;;;;;4940480;29;20032;-89
2022/01/31 13:56:30;;;;;;;4.25;2.30;;;2.10;73.30;;;;;;4915639;29;20032;-88
2022/01/31 13:59:00;;;;;;;4.68;2.70;;;2.10;73.50;;;;;;4914666;29;20040;-87
2022/01/31 14:01:26;;;;;;;9.70;5.47;;;2.00;73.90;;;;;;4913741;29;20038;-86
2022/01/31 14:03:53;;;;;;;16.10;8.32;;;1.90;74.70;;;;;;4914398;29;20025;-85
2022/01/31 14:06:20;;;;;;;12.98;7.75;;;1.90;75.50;;;;;;4921576;29;20043;-84
2022/01/31 14:08:47;;;;;;;11.98;6.40;;;1.90;76.00;;;;;;4924978;29;20097;-83
2022/01/31 14:11:20;;;;;;;11.05;5.93;;;1.80;76.10;;;;;;4923896;29;20130;-83
2022/01/31 14:13:52;;;;;;;7.38;4.65;;;1.80;76.10;;;;;;4924169;29;20032;-83